sensor_id;sensor_type;location;lat;lon;timestamp;P1;durP1;ratioP1;P2;durP2;ratioP2
21825;SDS011;11075;47.944;11.776;2022-07-12T00:01:36;3.30;;;1.90;;
21825;SDS011;11075;47.944;11.776;2022-07-12T00:04:03;2.22;;;1.23;;
21825;SDS011;11075;47.944;11.776;2022-07-12T00:06:31;3.15;;;1.42;;
21825;SDS011;11075;47.944;11.776;2022-07-12T00:08:57;3.90;;;1.83;;
21825;SDS011;11075;47.944;11.776;2022-07-12T00:11:24;1.85;;;1.30;;
21825;SDS011;11075;47.944;11.776;2022-07-12T00:13:51;2.95;;;1.75;;
21825;SDS011;11075;47.944;11.776;2022-07-12T00:16:18;1.75;;;1.50;;
21825;SDS011;11075;47.944;11.776;2022-07-12T00:18:45;3.20;;;1.83;;
21825;SDS011;11075;47.944;11.776;2022-07-12T00:21:12;1.70;;;1.60;;
21825;SDS011;11075;47.944;11.776;2022-07-12T00:23:39;4.95;;;1.83;;
21825;SDS011;11075;47.944;11.776;2022-07-12T00:26:06;4.10;;;1.52;;
21825;SDS011;11075;47.944;11.776;2022-07-12T00:28:33;3.10;;;1.48;;
21825;SDS011;11075;47.944;11.776;2022-07-12T00:31:00;1.83;;;1.42;;
21825;SDS011;11075;47.944;11.776;2022-07-12T00:33:27;1.98;;;1.67;;
21825;SDS011;11075;47.944;11.776;2022-07-12T00:35:54;1.70;;;1.60;;
21825;SDS011;11075;47.944;11.776;2022-07-12T00:38:21;3.20;;;1.75;;
21825;SDS011;11075;47.944;11.776;2022-07-12T00:40:48;2.63;;;1.52;;
21825;SDS011;11075;47.944;11.776;2022-07-12T00:43:15;2.58;;;1.55;;
21825;SDS011;11075;47.944;11.776;2022-07-12T00:45:43;2.60;;;1.50;;
21825;SDS011;11075;47.944;11.776;2022-07-12T00:48:09;2.72;;;1.70;;
21825;SDS011;11075;47.944;11.776;2022-07-12T00:50:37;4.70;;;1.63;;
21825;SDS011;11075;47.944;11.776;2022-07-12T00:53:04;2.13;;;1.60;;
21825;SDS011;11075;47.944;11.776;2022-07-12T00:55:31;1.75;;;1.65;;
21825;SDS011;11075;47.944;11.776;2022-07-12T00:57:58;2.05;;;1.50;;
21825;SDS011;11075;47.944;11.776;2022-07-12T01:00:25;1.67;;;1.58;;
21825;SDS011;11075;47.944;11.776;2022-07-12T01:02:55;2.55;;;1.60;;
21825;SDS011;11075;47.944;11.776;2022-07-12T01:05:25;1.70;;;1.60;;
21825;SDS011;11075;47.944;11.776;2022-07-12T01:07:54;1.85;;;1.50;;
21825;SDS011;11075;47.944;11.776;2022-07-12T01:10:22;2.10;;;1.58;;
21825;SDS011;11075;47.944;11.776;2022-07-12T01:12:49;2.55;;;1.70;;
21825;SDS011;11075;47.944;11.776;2022-07-12T01:15:17;1.60;;;1.38;;
21825;SDS011;11075;47.944;11.776;2022-07-12T01:17:46;3.05;;;1.50;;
21825;SDS011;11075;47.944;11.776;2022-07-12T01:20:19;3.72;;;1.77;;
21825;SDS011;11075;47.944;11.776;2022-07-12T01:22:52;2.65;;;1.60;;
21825;SDS011;11075;47.944;11.776;2022-07-12T01:25:21;2.17;;;1.85;;
21825;SDS011;11075;47.944;11.776;2022-07-12T01:27:48;2.33;;;1.58;;
21825;SDS011;11075;47.944;11.776;2022-07-12T01:30:15;1.90;;;1.80;;
21825;SDS011;11075;47.944;11.776;2022-07-12T01:32:42;2.17;;;1.90;;
21825;SDS011;11075;47.944;11.776;2022-07-12T01:35:09;3.47;;;1.60;;
21825;SDS011;11075;47.944;11.776;2022-07-12T01:37:38;1.92;;;1.63;;
21825;SDS011;11075;47.944;11.776;2022-07-12T01:40:09;1.90;;;1.80;;
21825;SDS011;11075;47.944;11.776;2022-07-12T01:42:38;1.77;;;1.67;;
21825;SDS011;11075;47.944;11.776;2022-07-12T01:45:05;2.00;;;1.80;;
21825;SDS011;11075;47.944;11.776;2022-07-12T01:47:34;2.17;;;1.90;;
21825;SDS011;11075;47.944;11.776;2022-07-12T01:50:04;1.85;;;1.70;;
21825;SDS011;11075;47.944;11.776;2022-07-12T01:52:32;3.45;;;1.80;;
21825;SDS011;11075;47.944;11.776;2022-07-12T01:55:00;2.88;;;1.50;;
21825;SDS011;11075;47.944;11.776;2022-07-12T01:57:27;2.15;;;1.70;;
21825;SDS011;11075;47.944;11.776;2022-07-12T01:59:55;1.58;;;1.48;;
21825;SDS011;11075;47.944;11.776;2022-07-12T02:02:24;3.42;;;2.10;;
21825;SDS011;11075;47.944;11.776;2022-07-12T02:04:53;6.28;;;2.05;;
21825;SDS011;11075;47.944;11.776;2022-07-12T02:07:22;1.90;;;1.80;;
21825;SDS011;11075;47.944;11.776;2022-07-12T02:09:50;3.08;;;2.42;;
21825;SDS011;11075;47.944;11.776;2022-07-12T02:12:17;1.85;;;1.75;;
21825;SDS011;11075;47.944;11.776;2022-07-12T02:14:44;2.13;;;1.85;;
21825;SDS011;11075;47.944;11.776;2022-07-12T02:17:11;2.30;;;2.10;;
21825;SDS011;11075;47.944;11.776;2022-07-12T02:19:38;3.35;;;1.70;;
21825;SDS011;11075;47.944;11.776;2022-07-12T02:22:05;2.15;;;1.95;;
21825;SDS011;11075;47.944;11.776;2022-07-12T02:24:32;4.63;;;2.10;;
21825;SDS011;11075;47.944;11.776;2022-07-12T02:26:59;4.63;;;2.08;;
21825;SDS011;11075;47.944;11.776;2022-07-12T02:29:26;3.42;;;2.10;;
21825;SDS011;11075;47.944;11.776;2022-07-12T02:31:53;4.15;;;1.65;;
21825;SDS011;11075;47.944;11.776;2022-07-12T02:34:20;2.00;;;1.83;;
21825;SDS011;11075;47.944;11.776;2022-07-12T02:36:47;4.20;;;2.15;;
21825;SDS011;11075;47.944;11.776;2022-07-12T02:39:14;2.25;;;2.05;;
21825;SDS011;11075;47.944;11.776;2022-07-12T02:41:40;2.20;;;1.90;;
21825;SDS011;11075;47.944;11.776;2022-07-12T02:44:07;2.38;;;2.03;;
21825;SDS011;11075;47.944;11.776;2022-07-12T02:46:34;2.50;;;1.88;;
21825;SDS011;11075;47.944;11.776;2022-07-12T02:49:02;2.25;;;2.05;;
21825;SDS011;11075;47.944;11.776;2022-07-12T02:51:29;2.58;;;1.85;;
21825;SDS011;11075;47.944;11.776;2022-07-12T02:53:56;2.03;;;1.85;;
21825;SDS011;11075;47.944;11.776;2022-07-12T02:56:23;2.17;;;2.00;;
21825;SDS011;11075;47.944;11.776;2022-07-12T02:58:50;2.42;;;2.05;;
21825;SDS011;11075;47.944;11.776;2022-07-12T03:01:17;3.05;;;2.15;;
21825;SDS011;11075;47.944;11.776;2022-07-12T03:03:44;2.03;;;1.92;;
21825;SDS011;11075;47.944;11.776;2022-07-12T03:06:11;5.50;;;1.88;;
21825;SDS011;11075;47.944;11.776;2022-07-12T03:08:39;2.53;;;2.00;;
21825;SDS011;11075;47.944;11.776;2022-07-12T03:11:05;2.03;;;1.83;;
21825;SDS011;11075;47.944;11.776;2022-07-12T03:13:32;2.38;;;1.80;;
21825;SDS011;11075;47.944;11.776;2022-07-12T03:15:59;1.75;;;1.65;;
21825;SDS011;11075;47.944;11.776;2022-07-12T03:18:26;1.93;;;1.70;;
21825;SDS011;11075;47.944;11.776;2022-07-12T03:20:54;2.95;;;1.70;;
21825;SDS011;11075;47.944;11.776;2022-07-12T03:23:21;4.38;;;2.10;;
21825;SDS011;11075;47.944;11.776;2022-07-12T03:25:47;2.20;;;1.80;;
21825;SDS011;11075;47.944;11.776;2022-07-12T03:28:14;1.60;;;1.50;;
21825;SDS011;11075;47.944;11.776;2022-07-12T03:30:41;4.13;;;2.20;;
21825;SDS011;11075;47.944;11.776;2022-07-12T03:33:08;2.67;;;1.98;;
21825;SDS011;11075;47.944;11.776;2022-07-12T03:35:35;2.30;;;1.92;;
21825;SDS011;11075;47.944;11.776;2022-07-12T03:38:02;2.35;;;2.00;;
21825;SDS011;11075;47.944;11.776;2022-07-12T03:40:31;2.03;;;1.85;;
21825;SDS011;11075;47.944;11.776;2022-07-12T03:42:59;2.08;;;1.63;;
21825;SDS011;11075;47.944;11.776;2022-07-12T03:45:25;1.97;;;1.77;;
21825;SDS011;11075;47.944;11.776;2022-07-12T03:47:52;3.33;;;1.90;;
21825;SDS011;11075;47.944;11.776;2022-07-12T03:50:19;2.00;;;1.83;;
21825;SDS011;11075;47.944;11.776;2022-07-12T03:52:46;1.80;;;1.70;;
21825;SDS011;11075;47.944;11.776;2022-07-12T03:55:15;2.63;;;1.87;;
21825;SDS011;11075;47.944;11.776;2022-07-12T03:57:41;1.98;;;1.88;;
21825;SDS011;11075;47.944;11.776;2022-07-12T04:00:09;5.28;;;2.20;;
21825;SDS011;11075;47.944;11.776;2022-07-12T04:02:40;2.40;;;1.83;;
21825;SDS011;11075;47.944;11.776;2022-07-12T04:05:08;1.90;;;1.80;;
21825;SDS011;11075;47.944;11.776;2022-07-12T04:07:36;1.83;;;1.65;;
21825;SDS011;11075;47.944;11.776;2022-07-12T04:10:04;2.50;;;1.83;;
21825;SDS011;11075;47.944;11.776;2022-07-12T04:12:31;2.50;;;1.83;;
21825;SDS011;11075;47.944;11.776;2022-07-12T04:14:58;2.53;;;1.80;;
21825;SDS011;11075;47.944;11.776;2022-07-12T04:17:25;3.83;;;1.90;;
21825;SDS011;11075;47.944;11.776;2022-07-12T04:19:52;3.03;;;2.00;;
21825;SDS011;11075;47.944;11.776;2022-07-12T04:22:19;1.85;;;1.75;;
21825;SDS011;11075;47.944;11.776;2022-07-12T04:24:46;4.45;;;1.60;;
21825;SDS011;11075;47.944;11.776;2022-07-12T04:27:13;1.73;;;1.60;;
21825;SDS011;11075;47.944;11.776;2022-07-12T04:29:40;2.67;;;1.50;;
21825;SDS011;11075;47.944;11.776;2022-07-12T04:32:07;3.63;;;1.57;;
21825;SDS011;11075;47.944;11.776;2022-07-12T04:34:34;3.00;;;1.63;;
21825;SDS011;11075;47.944;11.776;2022-07-12T04:37:01;2.37;;;1.60;;
21825;SDS011;11075;47.944;11.776;2022-07-12T04:39:28;5.13;;;2.00;;
21825;SDS011;11075;47.944;11.776;2022-07-12T04:41:55;2.10;;;1.60;;
21825;SDS011;11075;47.944;11.776;2022-07-12T04:44:22;2.70;;;1.80;;
21825;SDS011;11075;47.944;11.776;2022-07-12T04:46:49;1.63;;;1.50;;
21825;SDS011;11075;47.944;11.776;2022-07-12T04:49:16;1.75;;;1.65;;
21825;SDS011;11075;47.944;11.776;2022-07-12T04:51:43;1.88;;;1.70;;
21825;SDS011;11075;47.944;11.776;2022-07-12T04:54:11;2.53;;;1.52;;
21825;SDS011;11075;47.944;11.776;2022-07-12T04:56:38;1.70;;;1.60;;
21825;SDS011;11075;47.944;11.776;2022-07-12T04:59:05;2.75;;;1.90;;
21825;SDS011;11075;47.944;11.776;2022-07-12T05:01:32;1.73;;;1.55;;
21825;SDS011;11075;47.944;11.776;2022-07-12T05:03:59;2.42;;;1.70;;
21825;SDS011;11075;47.944;11.776;2022-07-12T05:06:26;1.63;;;1.50;;
21825;SDS011;11075;47.944;11.776;2022-07-12T05:08:53;1.92;;;1.30;;
21825;SDS011;11075;47.944;11.776;2022-07-12T05:11:20;2.70;;;1.52;;
21825;SDS011;11075;47.944;11.776;2022-07-12T05:13:47;2.60;;;1.45;;
21825;SDS011;11075;47.944;11.776;2022-07-12T05:16:14;1.60;;;1.50;;
21825;SDS011;11075;47.944;11.776;2022-07-12T05:18:41;2.42;;;1.70;;
21825;SDS011;11075;47.944;11.776;2022-07-12T05:21:08;1.73;;;1.13;;
21825;SDS011;11075;47.944;11.776;2022-07-12T05:23:35;2.00;;;1.48;;
21825;SDS011;11075;47.944;11.776;2022-07-12T05:26:02;1.88;;;1.70;;
21825;SDS011;11075;47.944;11.776;2022-07-12T05:28:28;3.35;;;2.97;;
21825;SDS011;11075;47.944;11.776;2022-07-12T05:30:55;3.78;;;3.15;;
21825;SDS011;11075;47.944;11.776;2022-07-12T05:33:22;6.07;;;3.28;;
21825;SDS011;11075;47.944;11.776;2022-07-12T05:35:49;3.78;;;2.72;;
21825;SDS011;11075;47.944;11.776;2022-07-12T05:38:18;4.18;;;3.30;;
21825;SDS011;11075;47.944;11.776;2022-07-12T05:40:44;5.47;;;3.35;;
21825;SDS011;11075;47.944;11.776;2022-07-12T05:43:11;3.45;;;3.10;;
21825;SDS011;11075;47.944;11.776;2022-07-12T05:45:40;4.65;;;3.53;;
21825;SDS011;11075;47.944;11.776;2022-07-12T05:48:07;6.60;;;3.63;;
21825;SDS011;11075;47.944;11.776;2022-07-12T05:50:34;3.95;;;3.13;;
21825;SDS011;11075;47.944;11.776;2022-07-12T05:53:01;5.18;;;3.00;;
21825;SDS011;11075;47.944;11.776;2022-07-12T05:55:50;4.28;;;3.20;;
21825;SDS011;11075;47.944;11.776;2022-07-12T05:58:18;3.40;;;3.10;;
21825;SDS011;11075;47.944;11.776;2022-07-12T06:00:46;5.70;;;3.25;;
21825;SDS011;11075;47.944;11.776;2022-07-12T06:03:14;3.33;;;2.80;;
21825;SDS011;11075;47.944;11.776;2022-07-12T06:05:41;2.50;;;2.30;;
21825;SDS011;11075;47.944;11.776;2022-07-12T06:08:08;5.38;;;2.50;;
21825;SDS011;11075;47.944;11.776;2022-07-12T06:10:35;2.42;;;2.22;;
21825;SDS011;11075;47.944;11.776;2022-07-12T06:13:02;4.90;;;2.30;;
21825;SDS011;11075;47.944;11.776;2022-07-12T06:15:29;3.13;;;2.15;;
21825;SDS011;11075;47.944;11.776;2022-07-12T06:18:00;3.60;;;2.20;;
21825;SDS011;11075;47.944;11.776;2022-07-12T06:20:28;3.63;;;2.17;;
21825;SDS011;11075;47.944;11.776;2022-07-12T06:22:56;3.17;;;2.60;;
21825;SDS011;11075;47.944;11.776;2022-07-12T06:25:23;3.75;;;2.13;;
21825;SDS011;11075;47.944;11.776;2022-07-12T06:28:10;2.03;;;1.88;;
21825;SDS011;11075;47.944;11.776;2022-07-12T06:30:38;1.92;;;1.80;;
21825;SDS011;11075;47.944;11.776;2022-07-12T06:33:04;1.75;;;1.52;;
21825;SDS011;11075;47.944;11.776;2022-07-12T06:35:31;1.42;;;1.33;;
21825;SDS011;11075;47.944;11.776;2022-07-12T06:38:01;2.00;;;1.55;;
21825;SDS011;11075;47.944;11.776;2022-07-12T06:40:28;2.80;;;1.65;;
21825;SDS011;11075;47.944;11.776;2022-07-12T06:42:55;1.50;;;1.15;;
21825;SDS011;11075;47.944;11.776;2022-07-12T06:45:22;1.45;;;1.30;;
21825;SDS011;11075;47.944;11.776;2022-07-12T06:47:49;1.10;;;1.10;;
21825;SDS011;11075;47.944;11.776;2022-07-12T06:50:17;1.90;;;1.20;;
21825;SDS011;11075;47.944;11.776;2022-07-12T06:52:44;1.13;;;1.13;;
21825;SDS011;11075;47.944;11.776;2022-07-12T06:55:11;1.73;;;1.23;;
21825;SDS011;11075;47.944;11.776;2022-07-12T06:57:38;1.17;;;1.13;;
21825;SDS011;11075;47.944;11.776;2022-07-12T07:00:05;1.50;;;1.40;;
21825;SDS011;11075;47.944;11.776;2022-07-12T07:02:32;1.45;;;1.33;;
21825;SDS011;11075;47.944;11.776;2022-07-12T07:04:59;1.85;;;1.40;;
21825;SDS011;11075;47.944;11.776;2022-07-12T07:07:26;2.00;;;1.85;;
21825;SDS011;11075;47.944;11.776;2022-07-12T07:09:53;2.25;;;1.60;;
21825;SDS011;11075;47.944;11.776;2022-07-12T07:12:20;2.53;;;1.90;;
21825;SDS011;11075;47.944;11.776;2022-07-12T07:14:48;2.67;;;2.20;;
21825;SDS011;11075;47.944;11.776;2022-07-12T07:17:15;2.20;;;1.50;;
21825;SDS011;11075;47.944;11.776;2022-07-12T07:19:43;1.52;;;1.42;;
21825;SDS011;11075;47.944;11.776;2022-07-12T07:22:11;1.88;;;1.67;;
21825;SDS011;11075;47.944;11.776;2022-07-12T07:24:39;3.17;;;1.63;;
21825;SDS011;11075;47.944;11.776;2022-07-12T07:27:07;1.45;;;1.35;;
21825;SDS011;11075;47.944;11.776;2022-07-12T07:29:34;1.95;;;1.40;;
21825;SDS011;11075;47.944;11.776;2022-07-12T07:32:20;1.40;;;1.30;;
21825;SDS011;11075;47.944;11.776;2022-07-12T07:34:47;1.73;;;1.40;;
21825;SDS011;11075;47.944;11.776;2022-07-12T07:37:14;2.05;;;1.42;;
21825;SDS011;11075;47.944;11.776;2022-07-12T07:39:41;1.85;;;1.30;;
21825;SDS011;11075;47.944;11.776;2022-07-12T07:42:08;1.40;;;1.30;;
21825;SDS011;11075;47.944;11.776;2022-07-12T07:44:35;0.90;;;0.90;;
21825;SDS011;11075;47.944;11.776;2022-07-12T07:47:22;3.00;;;1.10;;
21825;SDS011;11075;47.944;11.776;2022-07-12T07:49:49;1.35;;;1.25;;
21825;SDS011;11075;47.944;11.776;2022-07-12T07:52:16;4.43;;;1.30;;
21825;SDS011;11075;47.944;11.776;2022-07-12T07:54:43;1.73;;;1.33;;
21825;SDS011;11075;47.944;11.776;2022-07-12T07:57:09;1.67;;;1.38;;
21825;SDS011;11075;47.944;11.776;2022-07-12T07:59:36;1.10;;;1.00;;
21825;SDS011;11075;47.944;11.776;2022-07-12T08:02:03;1.38;;;1.27;;
21825;SDS011;11075;47.944;11.776;2022-07-12T08:04:30;1.83;;;1.35;;
21825;SDS011;11075;47.944;11.776;2022-07-12T08:06:57;3.08;;;1.45;;
21825;SDS011;11075;47.944;11.776;2022-07-12T08:09:25;1.30;;;1.20;;
21825;SDS011;11075;47.944;11.776;2022-07-12T08:11:52;1.38;;;1.27;;
21825;SDS011;11075;47.944;11.776;2022-07-12T08:14:18;0.93;;;0.93;;
21825;SDS011;11075;47.944;11.776;2022-07-12T08:16:45;1.77;;;1.40;;
21825;SDS011;11075;47.944;11.776;2022-07-12T08:19:12;1.95;;;1.30;;
21825;SDS011;11075;47.944;11.776;2022-07-12T08:21:39;1.10;;;1.00;;
21825;SDS011;11075;47.944;11.776;2022-07-12T08:24:06;1.25;;;1.02;;
21825;SDS011;11075;47.944;11.776;2022-07-12T08:26:33;1.02;;;1.00;;
21825;SDS011;11075;47.944;11.776;2022-07-12T08:29:00;1.23;;;1.13;;
21825;SDS011;11075;47.944;11.776;2022-07-12T08:31:27;1.40;;;1.30;;
21825;SDS011;11075;47.944;11.776;2022-07-12T08:33:54;1.70;;;0.90;;
21825;SDS011;11075;47.944;11.776;2022-07-12T08:36:21;1.00;;;0.90;;
21825;SDS011;11075;47.944;11.776;2022-07-12T08:38:48;0.90;;;0.90;;
21825;SDS011;11075;47.944;11.776;2022-07-12T08:41:15;0.93;;;0.93;;
21825;SDS011;11075;47.944;11.776;2022-07-12T08:43:42;2.15;;;1.10;;
21825;SDS011;11075;47.944;11.776;2022-07-12T08:46:10;1.67;;;1.35;;
21825;SDS011;11075;47.944;11.776;2022-07-12T08:48:39;3.10;;;1.13;;
21825;SDS011;11075;47.944;11.776;2022-07-12T08:51:08;1.35;;;1.10;;
21825;SDS011;11075;47.944;11.776;2022-07-12T08:53:40;3.03;;;0.95;;
21825;SDS011;11075;47.944;11.776;2022-07-12T08:56:08;3.33;;;1.10;;
21825;SDS011;11075;47.944;11.776;2022-07-12T08:59:08;1.50;;;1.30;;
21825;SDS011;11075;47.944;11.776;2022-07-12T09:01:49;2.30;;;1.00;;
21825;SDS011;11075;47.944;11.776;2022-07-12T09:04:21;1.13;;;1.02;;
21825;SDS011;11075;47.944;11.776;2022-07-12T09:06:50;1.10;;;0.98;;
21825;SDS011;11075;47.944;11.776;2022-07-12T09:12:03;1.48;;;1.20;;
21825;SDS011;11075;47.944;11.776;2022-07-12T09:14:31;2.25;;;1.30;;
21825;SDS011;11075;47.944;11.776;2022-07-12T09:16:58;2.90;;;1.10;;
21825;SDS011;11075;47.944;11.776;2022-07-12T09:19:25;2.08;;;1.00;;
21825;SDS011;11075;47.944;11.776;2022-07-12T09:21:53;0.93;;;0.90;;
21825;SDS011;11075;47.944;11.776;2022-07-12T09:24:24;1.67;;;1.00;;
21825;SDS011;11075;47.944;11.776;2022-07-12T09:26:53;1.83;;;1.02;;
21825;SDS011;11075;47.944;11.776;2022-07-12T09:29:27;1.35;;;1.20;;
21825;SDS011;11075;47.944;11.776;2022-07-12T09:31:55;4.43;;;1.00;;
21825;SDS011;11075;47.944;11.776;2022-07-12T09:34:40;1.40;;;1.10;;
21825;SDS011;11075;47.944;11.776;2022-07-12T09:37:25;2.30;;;1.00;;
21825;SDS011;11075;47.944;11.776;2022-07-12T09:39:53;1.98;;;1.02;;
21825;SDS011;11075;47.944;11.776;2022-07-12T09:42:21;1.10;;;1.00;;
21825;SDS011;11075;47.944;11.776;2022-07-12T09:44:54;6.50;;;1.20;;
21825;SDS011;11075;47.944;11.776;2022-07-12T09:47:23;2.10;;;1.00;;
21825;SDS011;11075;47.944;11.776;2022-07-12T09:49:51;1.23;;;0.90;;
21825;SDS011;11075;47.944;11.776;2022-07-12T09:52:20;1.20;;;1.10;;
21825;SDS011;11075;47.944;11.776;2022-07-12T09:54:51;3.85;;;1.10;;
21825;SDS011;11075;47.944;11.776;2022-07-12T09:57:27;3.30;;;1.10;;
21825;SDS011;11075;47.944;11.776;2022-07-12T09:59:59;0.93;;;0.90;;
21825;SDS011;11075;47.944;11.776;2022-07-12T10:02:36;0.80;;;0.80;;
21825;SDS011;11075;47.944;11.776;2022-07-12T10:05:04;1.88;;;1.00;;
21825;SDS011;11075;47.944;11.776;2022-07-12T10:07:36;2.38;;;1.13;;
21825;SDS011;11075;47.944;11.776;2022-07-12T10:10:03;0.85;;;0.70;;
21825;SDS011;11075;47.944;11.776;2022-07-12T10:12:31;2.28;;;0.82;;
21825;SDS011;11075;47.944;11.776;2022-07-12T10:15:00;2.22;;;0.80;;
21825;SDS011;11075;47.944;11.776;2022-07-12T10:17:30;0.73;;;0.73;;
21825;SDS011;11075;47.944;11.776;2022-07-12T10:20:14;1.00;;;0.90;;
21825;SDS011;11075;47.944;11.776;2022-07-12T10:22:43;1.00;;;0.90;;
21825;SDS011;11075;47.944;11.776;2022-07-12T10:27:57;1.67;;;0.88;;
21825;SDS011;11075;47.944;11.776;2022-07-12T10:30:24;1.70;;;0.90;;
21825;SDS011;11075;47.944;11.776;2022-07-12T10:32:52;1.15;;;0.90;;
21825;SDS011;11075;47.944;11.776;2022-07-12T10:35:30;0.80;;;0.80;;
21825;SDS011;11075;47.944;11.776;2022-07-12T10:38:16;1.05;;;1.05;;
21825;SDS011;11075;47.944;11.776;2022-07-12T10:40:45;2.20;;;0.90;;
21825;SDS011;11075;47.944;11.776;2022-07-12T10:43:13;1.15;;;1.00;;
21825;SDS011;11075;47.944;11.776;2022-07-12T10:45:42;1.95;;;0.98;;
21825;SDS011;11075;47.944;11.776;2022-07-12T10:53:32;0.70;;;0.70;;
21825;SDS011;11075;47.944;11.776;2022-07-12T10:58:30;1.00;;;0.85;;
21825;SDS011;11075;47.944;11.776;2022-07-12T11:01:00;3.33;;;1.00;;
21825;SDS011;11075;47.944;11.776;2022-07-12T11:06:14;1.27;;;0.90;;
21825;SDS011;11075;47.944;11.776;2022-07-12T11:09:02;2.55;;;0.95;;
21825;SDS011;11075;47.944;11.776;2022-07-12T11:11:43;1.25;;;1.00;;
21825;SDS011;11075;47.944;11.776;2022-07-12T11:14:35;1.08;;;1.00;;
21825;SDS011;11075;47.944;11.776;2022-07-12T11:17:02;1.00;;;1.00;;
21825;SDS011;11075;47.944;11.776;2022-07-12T11:19:30;0.82;;;0.70;;
21825;SDS011;11075;47.944;11.776;2022-07-12T11:21:57;2.47;;;1.02;;
21825;SDS011;11075;47.944;11.776;2022-07-12T11:24:29;0.75;;;0.70;;
21825;SDS011;11075;47.944;11.776;2022-07-12T11:26:58;0.70;;;0.70;;
21825;SDS011;11075;47.944;11.776;2022-07-12T11:29:26;1.00;;;0.90;;
21825;SDS011;11075;47.944;11.776;2022-07-12T11:32:00;0.70;;;0.70;;
21825;SDS011;11075;47.944;11.776;2022-07-12T11:34:36;1.10;;;0.80;;
21825;SDS011;11075;47.944;11.776;2022-07-12T11:37:03;1.58;;;1.02;;
21825;SDS011;11075;47.944;11.776;2022-07-12T11:39:37;1.00;;;0.88;;
21825;SDS011;11075;47.944;11.776;2022-07-12T11:42:06;2.08;;;0.95;;
21825;SDS011;11075;47.944;11.776;2022-07-12T11:47:10;1.95;;;0.70;;
21825;SDS011;11075;47.944;11.776;2022-07-12T11:49:41;2.80;;;1.02;;
21825;SDS011;11075;47.944;11.776;2022-07-12T11:52:13;3.05;;;0.95;;
21825;SDS011;11075;47.944;11.776;2022-07-12T11:54:47;3.75;;;0.75;;
21825;SDS011;11075;47.944;11.776;2022-07-12T11:57:16;1.42;;;1.00;;
21825;SDS011;11075;47.944;11.776;2022-07-12T11:59:46;0.80;;;0.80;;
21825;SDS011;11075;47.944;11.776;2022-07-12T12:02:13;1.05;;;0.80;;
21825;SDS011;11075;47.944;11.776;2022-07-12T12:05:03;3.80;;;0.90;;
21825;SDS011;11075;47.944;11.776;2022-07-12T12:07:31;1.40;;;0.70;;
21825;SDS011;11075;47.944;11.776;2022-07-12T12:10:02;0.70;;;0.70;;
21825;SDS011;11075;47.944;11.776;2022-07-12T12:15:17;0.85;;;0.75;;
21825;SDS011;11075;47.944;11.776;2022-07-12T12:18:04;0.82;;;0.82;;
21825;SDS011;11075;47.944;11.776;2022-07-12T12:20:34;2.15;;;0.68;;
21825;SDS011;11075;47.944;11.776;2022-07-12T12:23:06;3.60;;;1.10;;
21825;SDS011;11075;47.944;11.776;2022-07-12T12:25:44;2.75;;;0.85;;
21825;SDS011;11075;47.944;11.776;2022-07-12T12:28:20;0.80;;;0.80;;
21825;SDS011;11075;47.944;11.776;2022-07-12T12:30:53;2.28;;;0.80;;
21825;SDS011;11075;47.944;11.776;2022-07-12T12:38:50;1.00;;;0.90;;
21825;SDS011;11075;47.944;11.776;2022-07-12T12:41:20;0.70;;;0.70;;
21825;SDS011;11075;47.944;11.776;2022-07-12T12:44:02;2.30;;;0.77;;
21825;SDS011;11075;47.944;11.776;2022-07-12T12:49:16;0.70;;;0.70;;
21825;SDS011;11075;47.944;11.776;2022-07-12T12:51:50;3.05;;;0.90;;
21825;SDS011;11075;47.944;11.776;2022-07-12T12:54:31;2.35;;;0.73;;
21825;SDS011;11075;47.944;11.776;2022-07-12T12:57:03;0.70;;;0.70;;
21825;SDS011;11075;47.944;11.776;2022-07-12T12:59:34;1.08;;;0.70;;
21825;SDS011;11075;47.944;11.776;2022-07-12T13:02:02;0.73;;;0.55;;
21825;SDS011;11075;47.944;11.776;2022-07-12T13:04:30;1.02;;;0.98;;
21825;SDS011;11075;47.944;11.776;2022-07-12T13:06:58;0.80;;;0.80;;
21825;SDS011;11075;47.944;11.776;2022-07-12T13:09:26;5.10;;;1.02;;
21825;SDS011;11075;47.944;11.776;2022-07-12T13:11:54;0.70;;;0.70;;
21825;SDS011;11075;47.944;11.776;2022-07-12T13:14:21;1.02;;;0.93;;
21825;SDS011;11075;47.944;11.776;2022-07-12T13:16:48;0.95;;;0.80;;
21825;SDS011;11075;47.944;11.776;2022-07-12T13:19:15;0.70;;;0.70;;
21825;SDS011;11075;47.944;11.776;2022-07-12T13:21:42;1.40;;;0.98;;
21825;SDS011;11075;47.944;11.776;2022-07-12T13:24:09;2.75;;;0.85;;
21825;SDS011;11075;47.944;11.776;2022-07-12T13:26:36;0.55;;;0.50;;
21825;SDS011;11075;47.944;11.776;2022-07-12T13:29:03;0.85;;;0.60;;
21825;SDS011;11075;47.944;11.776;2022-07-12T13:31:30;4.47;;;0.70;;
21825;SDS011;11075;47.944;11.776;2022-07-12T13:33:57;1.77;;;1.30;;
21825;SDS011;11075;47.944;11.776;2022-07-12T13:36:25;3.08;;;0.73;;
21825;SDS011;11075;47.944;11.776;2022-07-12T13:38:52;1.23;;;0.50;;
21825;SDS011;11075;47.944;11.776;2022-07-12T13:41:19;1.70;;;0.73;;
21825;SDS011;11075;47.944;11.776;2022-07-12T13:43:46;1.67;;;0.68;;
21825;SDS011;11075;47.944;11.776;2022-07-12T13:46:14;0.55;;;0.55;;
21825;SDS011;11075;47.944;11.776;2022-07-12T13:48:41;1.08;;;0.80;;
21825;SDS011;11075;47.944;11.776;2022-07-12T13:51:08;0.60;;;0.50;;
21825;SDS011;11075;47.944;11.776;2022-07-12T13:53:55;0.93;;;0.88;;
21825;SDS011;11075;47.944;11.776;2022-07-12T13:56:22;1.77;;;0.70;;
21825;SDS011;11075;47.944;11.776;2022-07-12T13:58:49;1.38;;;0.60;;
21825;SDS011;11075;47.944;11.776;2022-07-12T14:01:16;1.27;;;0.65;;
21825;SDS011;11075;47.944;11.776;2022-07-12T14:03:43;0.60;;;0.60;;
21825;SDS011;11075;47.944;11.776;2022-07-12T14:06:10;1.45;;;0.73;;
21825;SDS011;11075;47.944;11.776;2022-07-12T14:08:36;0.93;;;0.70;;
21825;SDS011;11075;47.944;11.776;2022-07-12T14:11:03;2.08;;;0.63;;
21825;SDS011;11075;47.944;11.776;2022-07-12T14:13:30;5.50;;;0.63;;
21825;SDS011;11075;47.944;11.776;2022-07-12T14:15:57;1.58;;;0.65;;
21825;SDS011;11075;47.944;11.776;2022-07-12T14:18:25;1.27;;;0.60;;
21825;SDS011;11075;47.944;11.776;2022-07-12T14:20:52;1.63;;;0.60;;
21825;SDS011;11075;47.944;11.776;2022-07-12T14:23:19;1.55;;;0.50;;
21825;SDS011;11075;47.944;11.776;2022-07-12T14:25:46;0.50;;;0.50;;
21825;SDS011;11075;47.944;11.776;2022-07-12T14:28:13;0.88;;;0.40;;
21825;SDS011;11075;47.944;11.776;2022-07-12T14:30:40;0.30;;;0.30;;
21825;SDS011;11075;47.944;11.776;2022-07-12T14:33:07;0.63;;;0.43;;
21825;SDS011;11075;47.944;11.776;2022-07-12T14:35:34;0.70;;;0.50;;
21825;SDS011;11075;47.944;11.776;2022-07-12T14:38:01;4.47;;;0.50;;
21825;SDS011;11075;47.944;11.776;2022-07-12T14:40:28;0.88;;;0.60;;
21825;SDS011;11075;47.944;11.776;2022-07-12T14:42:55;0.93;;;0.40;;
21825;SDS011;11075;47.944;11.776;2022-07-12T14:45:23;1.63;;;0.52;;
21825;SDS011;11075;47.944;11.776;2022-07-12T14:47:50;2.50;;;0.40;;
21825;SDS011;11075;47.944;11.776;2022-07-12T14:50:17;0.20;;;0.20;;
21825;SDS011;11075;47.944;11.776;2022-07-12T14:52:44;2.05;;;0.50;;
21825;SDS011;11075;47.944;11.776;2022-07-12T14:55:11;3.92;;;0.40;;
21825;SDS011;11075;47.944;11.776;2022-07-12T14:57:39;1.30;;;0.40;;
21825;SDS011;11075;47.944;11.776;2022-07-12T15:00:06;0.80;;;0.45;;
21825;SDS011;11075;47.944;11.776;2022-07-12T15:02:34;1.75;;;0.40;;
21825;SDS011;11075;47.944;11.776;2022-07-12T15:05:01;0.60;;;0.40;;
21825;SDS011;11075;47.944;11.776;2022-07-12T15:07:31;0.50;;;0.50;;
21825;SDS011;11075;47.944;11.776;2022-07-12T15:09:58;2.00;;;0.50;;
21825;SDS011;11075;47.944;11.776;2022-07-12T15:12:25;1.55;;;0.60;;